Terminal Aerodrome Forecast
Issued by NWS Tampa Bay Area, FL

Home | Current Version | Previous Version | Text Only | Print | Product List | Glossary Off
Versions: 1 2 3 4 5 6 7 8 9 10 11 12 13 14 15 16

000
FTUS42 KTBW 261748
TAFSRQ
TAF
KSRQ 261748Z 2618/2718 20015G21KT P6SM SCT030 BKN150
     FM270100 20007KT P6SM SCT020 BKN100
     FM270800 19008KT P6SM VCSH SCT020 BKN100
     FM271400 21010KT P6SM VCTS BKN025CB
     FM271700 22016KT P6SM VCTS BKN020CB=

USA.gov is the U.S. government's official web portal to all federal, state and local government web resources and services.